sensor_id;sensor_type;location;lat;lon;timestamp;pressure;altitude;pressure_sealevel;temperature;humidity
59103;BME280;43999;51.660;5.616;2022-11-11T00:01:55;102643.47;;;8.37;100.00
59103;BME280;43999;51.660;5.616;2022-11-11T00:04:41;102647.81;;;8.36;100.00
59103;BME280;43999;51.660;5.616;2022-11-11T00:07:26;102646.09;;;8.37;100.00
59103;BME280;43999;51.660;5.616;2022-11-11T00:10:13;102639.13;;;8.36;100.00
59103;BME280;43999;51.660;5.616;2022-11-11T00:13:03;102645.19;;;8.38;100.00
59103;BME280;43999;51.660;5.616;2022-11-11T00:15:50;102641.66;;;8.40;100.00
59103;BME280;43999;51.660;5.616;2022-11-11T00:18:36;102645.13;;;8.44;100.00
59103;BME280;43999;51.660;5.616;2022-11-11T00:21:42;102655.47;;;8.50;100.00
59103;BME280;43999;51.660;5.616;2022-11-11T00:24:46;102653.66;;;8.57;100.00
59103;BME280;43999;51.660;5.616;2022-11-11T00:27:50;102651.84;;;8.59;100.00
59103;BME280;43999;51.660;5.616;2022-11-11T00:30:36;102669.22;;;8.63;100.00
59103;BME280;43999;51.660;5.616;2022-11-11T00:33:21;102667.41;;;8.67;100.00
59103;BME280;43999;51.660;5.616;2022-11-11T00:36:08;102671.72;;;8.71;100.00
59103;BME280;43999;51.660;5.616;2022-11-11T00:38:53;102667.31;;;8.73;100.00
59103;BME280;43999;51.660;5.616;2022-11-11T00:41:40;102675.97;;;8.75;100.00
59103;BME280;43999;51.660;5.616;2022-11-11T00:44:26;102675.94;;;8.76;100.00
59103;BME280;43999;51.660;5.616;2022-11-11T00:47:12;102670.69;;;8.78;100.00
59103;BME280;43999;51.660;5.616;2022-11-11T00:50:23;102675.91;;;8.79;100.00
59103;BME280;43999;51.660;5.616;2022-11-11T00:53:31;102678.50;;;8.81;100.00
59103;BME280;43999;51.660;5.616;2022-11-11T00:56:25;102683.66;;;8.84;100.00
59103;BME280;43999;51.660;5.616;2022-11-11T00:59:11;102679.31;;;8.85;100.00
59103;BME280;43999;51.660;5.616;2022-11-11T01:01:56;102686.28;;;8.84;100.00
59103;BME280;43999;51.660;5.616;2022-11-11T01:04:42;102697.59;;;8.86;100.00
59103;BME280;43999;51.660;5.616;2022-11-11T01:07:28;102694.94;;;8.89;100.00
59103;BME280;43999;51.660;5.616;2022-11-11T01:10:15;102694.91;;;8.91;100.00
59103;BME280;43999;51.660;5.616;2022-11-11T01:13:31;102698.38;;;8.91;100.00
59103;BME280;43999;51.660;5.616;2022-11-11T01:16:22;102694.97;;;8.88;100.00
59103;BME280;43999;51.660;5.616;2022-11-11T01:19:09;102700.97;;;8.91;100.00
59103;BME280;43999;51.660;5.616;2022-11-11T01:21:55;102691.34;;;8.93;100.00
59103;BME280;43999;51.660;5.616;2022-11-11T01:24:41;102680.00;;;8.94;100.00
59103;BME280;43999;51.660;5.616;2022-11-11T01:27:27;102683.47;;;8.95;100.00
59103;BME280;43999;51.660;5.616;2022-11-11T01:30:13;102678.22;;;8.96;100.00
59103;BME280;43999;51.660;5.616;2022-11-11T01:33:00;102670.38;;;8.96;100.00
59103;BME280;43999;51.660;5.616;2022-11-11T01:35:47;102675.56;;;9.00;100.00
59103;BME280;43999;51.660;5.616;2022-11-11T01:38:33;102661.66;;;8.97;100.00
59103;BME280;43999;51.660;5.616;2022-11-11T01:41:30;102666.06;;;8.95;100.00
59103;BME280;43999;51.660;5.616;2022-11-11T01:44:41;102667.75;;;8.98;100.00
59103;BME280;43999;51.660;5.616;2022-11-11T01:47:31;102664.28;;;8.97;100.00
59103;BME280;43999;51.660;5.616;2022-11-11T01:50:57;102659.91;;;8.98;100.00
59103;BME280;43999;51.660;5.616;2022-11-11T01:53:47;102663.41;;;8.99;100.00
59103;BME280;43999;51.660;5.616;2022-11-11T01:56:40;102656.44;;;8.97;100.00
59103;BME280;43999;51.660;5.616;2022-11-11T01:59:33;102653.81;;;8.97;100.00
59103;BME280;43999;51.660;5.616;2022-11-11T02:02:30;102652.03;;;9.00;100.00
59103;BME280;43999;51.660;5.616;2022-11-11T02:05:25;102647.69;;;9.00;100.00
59103;BME280;43999;51.660;5.616;2022-11-11T02:08:33;102639.84;;;9.00;100.00
59103;BME280;43999;51.660;5.616;2022-11-11T02:11:22;102648.56;;;8.99;100.00
59103;BME280;43999;51.660;5.616;2022-11-11T02:14:45;102633.78;;;8.96;100.00
59103;BME280;43999;51.660;5.616;2022-11-11T02:17:33;102640.72;;;8.99;100.00
59103;BME280;43999;51.660;5.616;2022-11-11T02:20:25;102632.03;;;8.99;100.00
59103;BME280;43999;51.660;5.616;2022-11-11T02:23:25;102628.56;;;8.95;100.00
59103;BME280;43999;51.660;5.616;2022-11-11T02:26:17;102645.03;;;9.02;100.00
59103;BME280;43999;51.660;5.616;2022-11-11T02:29:17;102649.34;;;9.03;100.00
59103;BME280;43999;51.660;5.616;2022-11-11T02:32:05;102651.13;;;9.02;100.00
59103;BME280;43999;51.660;5.616;2022-11-11T02:34:51;102645.84;;;9.04;100.00
59103;BME280;43999;51.660;5.616;2022-11-11T02:37:37;102643.25;;;9.04;100.00
59103;BME280;43999;51.660;5.616;2022-11-11T02:40:36;102656.31;;;9.04;100.00
59103;BME280;43999;51.660;5.616;2022-11-11T02:43:43;102652.84;;;9.03;100.00
59103;BME280;43999;51.660;5.616;2022-11-11T02:46:29;102652.84;;;9.03;100.00
59103;BME280;43999;51.660;5.616;2022-11-11T02:49:15;102638.91;;;9.03;100.00
59103;BME280;43999;51.660;5.616;2022-11-11T02:52:01;102625.88;;;9.00;100.00
59103;BME280;43999;51.660;5.616;2022-11-11T02:54:47;102637.22;;;9.00;100.00
59103;BME280;43999;51.660;5.616;2022-11-11T02:57:34;102651.16;;;9.01;100.00
59103;BME280;43999;51.660;5.616;2022-11-11T03:00:20;102645.06;;;9.00;100.00
59103;BME280;43999;51.660;5.616;2022-11-11T03:03:07;102637.22;;;9.00;100.00
59103;BME280;43999;51.660;5.616;2022-11-11T03:05:54;102639.00;;;8.96;100.00
59103;BME280;43999;51.660;5.616;2022-11-11T03:08:39;102643.34;;;8.97;100.00
59103;BME280;43999;51.660;5.616;2022-11-11T03:11:25;102643.38;;;8.96;100.00
59103;BME280;43999;51.660;5.616;2022-11-11T03:14:14;102646.00;;;8.96;100.00
59103;BME280;43999;51.660;5.616;2022-11-11T03:17:01;102646.00;;;8.96;100.00
59103;BME280;43999;51.660;5.616;2022-11-11T03:20:16;102650.38;;;8.95;100.00
59103;BME280;43999;51.660;5.616;2022-11-11T03:23:21;102645.16;;;8.95;100.00
59103;BME280;43999;51.660;5.616;2022-11-11T03:26:08;102646.03;;;8.94;100.00
59103;BME280;43999;51.660;5.616;2022-11-11T03:28:53;102646.09;;;8.91;100.00
59103;BME280;43999;51.660;5.616;2022-11-11T03:31:39;102643.50;;;8.90;100.00
59103;BME280;43999;51.660;5.616;2022-11-11T03:34:25;102643.56;;;8.87;100.00
59103;BME280;43999;51.660;5.616;2022-11-11T03:37:11;102644.44;;;8.86;100.00
59103;BME280;43999;51.660;5.616;2022-11-11T03:40:15;102646.19;;;8.85;100.00
59103;BME280;43999;51.660;5.616;2022-11-11T03:43:01;102639.25;;;8.83;100.00
59103;BME280;43999;51.660;5.616;2022-11-11T03:45:55;102635.78;;;8.82;100.00
59103;BME280;43999;51.660;5.616;2022-11-11T03:48:42;102633.22;;;8.79;100.00
59103;BME280;43999;51.660;5.616;2022-11-11T03:51:28;102641.94;;;8.78;100.00
59103;BME280;43999;51.660;5.616;2022-11-11T03:54:13;102636.78;;;8.75;100.00
59103;BME280;43999;51.660;5.616;2022-11-11T03:56:59;102639.38;;;8.75;100.00
59103;BME280;43999;51.660;5.616;2022-11-11T04:00:04;102647.19;;;8.76;100.00
59103;BME280;43999;51.660;5.616;2022-11-11T04:03:08;102656.84;;;8.74;100.00
59103;BME280;43999;51.660;5.616;2022-11-11T04:06:14;102646.41;;;8.73;100.00
59103;BME280;43999;51.660;5.616;2022-11-11T04:09:19;102653.38;;;8.74;100.00
59103;BME280;43999;51.660;5.616;2022-11-11T04:12:24;102658.63;;;8.72;100.00
59103;BME280;43999;51.660;5.616;2022-11-11T04:15:11;102655.09;;;8.73;100.00
59103;BME280;43999;51.660;5.616;2022-11-11T04:18:15;102659.41;;;8.76;100.00
59103;BME280;43999;51.660;5.616;2022-11-11T04:21:01;102660.28;;;8.75;100.00
59103;BME280;43999;51.660;5.616;2022-11-11T04:24:06;102669.91;;;8.74;100.00
59103;BME280;43999;51.660;5.616;2022-11-11T04:27:15;102663.78;;;8.75;100.00
59103;BME280;43999;51.660;5.616;2022-11-11T04:30:02;102674.25;;;8.75;100.00
59103;BME280;43999;51.660;5.616;2022-11-11T04:32:48;102668.13;;;8.75;100.00
59103;BME280;43999;51.660;5.616;2022-11-11T04:35:33;102669.06;;;8.74;100.00
59103;BME280;43999;51.660;5.616;2022-11-11T04:38:19;102662.09;;;8.73;100.00
59103;BME280;43999;51.660;5.616;2022-11-11T04:41:25;102663.88;;;8.71;100.00
59103;BME280;43999;51.660;5.616;2022-11-11T04:44:25;102668.22;;;8.70;100.00
59103;BME280;43999;51.660;5.616;2022-11-11T04:47:29;102658.69;;;8.68;100.00
59103;BME280;43999;51.660;5.616;2022-11-11T04:50:16;102664.78;;;8.68;100.00
59103;BME280;43999;51.660;5.616;2022-11-11T04:53:04;102656.09;;;8.68;100.00
59103;BME280;43999;51.660;5.616;2022-11-11T04:55:54;102657.81;;;8.67;100.00
59103;BME280;43999;51.660;5.616;2022-11-11T04:58:58;102656.13;;;8.65;100.00
59103;BME280;43999;51.660;5.616;2022-11-11T05:02:02;102655.28;;;8.63;100.00
59103;BME280;43999;51.660;5.616;2022-11-11T05:05:06;102654.41;;;8.62;100.00
59103;BME280;43999;51.660;5.616;2022-11-11T05:07:52;102651.84;;;8.59;100.00
59103;BME280;43999;51.660;5.616;2022-11-11T05:10:57;102655.31;;;8.59;100.00
59103;BME280;43999;51.660;5.616;2022-11-11T05:13:43;102656.22;;;8.58;100.00
59103;BME280;43999;51.660;5.616;2022-11-11T05:16:53;102662.31;;;8.59;100.00
59103;BME280;43999;51.660;5.616;2022-11-11T05:19:58;102661.47;;;8.57;100.00
59103;BME280;43999;51.660;5.616;2022-11-11T05:23:02;102660.59;;;8.56;100.00
59103;BME280;43999;51.660;5.616;2022-11-11T05:25:48;102658.94;;;8.52;100.00
59103;BME280;43999;51.660;5.616;2022-11-11T05:28:34;102651.13;;;8.51;100.00
59103;BME280;43999;51.660;5.616;2022-11-11T05:31:19;102659.91;;;8.47;100.00
59103;BME280;43999;51.660;5.616;2022-11-11T05:34:05;102659.94;;;8.43;100.00
59103;BME280;43999;51.660;5.616;2022-11-11T05:36:51;102658.19;;;8.44;100.00
59103;BME280;43999;51.660;5.616;2022-11-11T05:39:37;102659.09;;;8.40;100.00
59103;BME280;43999;51.660;5.616;2022-11-11T05:42:23;102666.06;;;8.39;100.00
59103;BME280;43999;51.660;5.616;2022-11-11T05:45:09;102668.75;;;8.35;100.00
59103;BME280;43999;51.660;5.616;2022-11-11T05:48:00;102667.09;;;8.29;100.00
59103;BME280;43999;51.660;5.616;2022-11-11T05:50:47;102665.34;;;8.30;100.00
59103;BME280;43999;51.660;5.616;2022-11-11T05:53:32;102669.69;;;8.31;100.00
59103;BME280;43999;51.660;5.616;2022-11-11T05:56:18;102671.41;;;8.32;100.00
59103;BME280;43999;51.660;5.616;2022-11-11T05:59:05;102658.41;;;8.27;100.00
59103;BME280;43999;51.660;5.616;2022-11-11T06:01:51;102673.13;;;8.34;100.00
59103;BME280;43999;51.660;5.616;2022-11-11T06:04:37;102658.31;;;8.33;100.00
59103;BME280;43999;51.660;5.616;2022-11-11T06:07:23;102667.16;;;8.26;100.00
59103;BME280;43999;51.660;5.616;2022-11-11T06:10:09;102673.25;;;8.25;100.00
59103;BME280;43999;51.660;5.616;2022-11-11T06:13:18;102683.81;;;8.17;100.00
59103;BME280;43999;51.660;5.616;2022-11-11T06:16:04;102686.47;;;8.14;100.00
59103;BME280;43999;51.660;5.616;2022-11-11T06:18:51;102681.31;;;8.08;100.00
59103;BME280;43999;51.660;5.616;2022-11-11T06:21:36;102679.63;;;8.04;100.00
59103;BME280;43999;51.660;5.616;2022-11-11T06:24:41;102676.19;;;8.02;100.00
59103;BME280;43999;51.660;5.616;2022-11-11T06:27:26;102684.06;;;7.99;100.00
59103;BME280;43999;51.660;5.616;2022-11-11T06:30:12;102688.50;;;7.94;100.00
59103;BME280;43999;51.660;5.616;2022-11-11T06:33:18;102687.72;;;7.87;100.00
59103;BME280;43999;51.660;5.616;2022-11-11T06:36:08;102697.31;;;7.83;100.00
59103;BME280;43999;51.660;5.616;2022-11-11T06:38:57;102699.03;;;7.84;100.00
59103;BME280;43999;51.660;5.616;2022-11-11T06:41:43;102705.19;;;7.80;100.00
59103;BME280;43999;51.660;5.616;2022-11-11T06:44:29;102705.13;;;7.85;100.00
59103;BME280;43999;51.660;5.616;2022-11-11T06:47:15;102713.94;;;7.78;100.00
59103;BME280;43999;51.660;5.616;2022-11-11T06:50:01;102700.94;;;7.71;100.00
59103;BME280;43999;51.660;5.616;2022-11-11T06:52:47;102709.72;;;7.64;100.00
59103;BME280;43999;51.660;5.616;2022-11-11T06:55:34;102703.66;;;7.64;100.00
59103;BME280;43999;51.660;5.616;2022-11-11T06:58:20;102707.16;;;7.60;100.00
59103;BME280;43999;51.660;5.616;2022-11-11T07:01:08;102708.03;;;7.59;100.00
59103;BME280;43999;51.660;5.616;2022-11-11T07:03:54;102701.97;;;7.57;100.00
59103;BME280;43999;51.660;5.616;2022-11-11T07:06:39;102708.06;;;7.56;100.00
59103;BME280;43999;51.660;5.616;2022-11-11T07:09:25;102699.41;;;7.55;100.00
59103;BME280;43999;51.660;5.616;2022-11-11T07:12:13;102709.91;;;7.47;100.00
59103;BME280;43999;51.660;5.616;2022-11-11T07:14:58;102708.25;;;7.40;100.00
59103;BME280;43999;51.660;5.616;2022-11-11T07:17:44;102711.78;;;7.34;100.00
59103;BME280;43999;51.660;5.616;2022-11-11T07:20:30;102716.19;;;7.28;100.00
59103;BME280;43999;51.660;5.616;2022-11-11T07:23:17;102724.06;;;7.22;100.00
59103;BME280;43999;51.660;5.616;2022-11-11T07:26:03;102725.88;;;7.15;100.00
59103;BME280;43999;51.660;5.616;2022-11-11T07:28:48;102736.31;;;7.13;100.00
59103;BME280;43999;51.660;5.616;2022-11-11T07:31:35;102741.59;;;7.07;100.00
59103;BME280;43999;51.660;5.616;2022-11-11T07:34:21;102739.88;;;7.05;100.00
59103;BME280;43999;51.660;5.616;2022-11-11T07:37:07;102744.25;;;7.01;100.00
59103;BME280;43999;51.660;5.616;2022-11-11T07:39:53;102745.09;;;7.02;100.00
59103;BME280;43999;51.660;5.616;2022-11-11T07:42:40;102750.31;;;7.02;100.00
59103;BME280;43999;51.660;5.616;2022-11-11T07:45:27;102754.69;;;7.01;100.00
59103;BME280;43999;51.660;5.616;2022-11-11T07:48:13;102756.44;;;7.00;100.00
59103;BME280;43999;51.660;5.616;2022-11-11T07:50:58;102760.72;;;7.03;100.00
59103;BME280;43999;51.660;5.616;2022-11-11T07:53:44;102764.22;;;7.04;100.00
59103;BME280;43999;51.660;5.616;2022-11-11T07:56:30;102767.69;;;7.04;100.00
59103;BME280;43999;51.660;5.616;2022-11-11T07:59:16;102771.13;;;7.06;100.00
59103;BME280;43999;51.660;5.616;2022-11-11T08:02:01;102779.84;;;7.07;100.00
59103;BME280;43999;51.660;5.616;2022-11-11T08:04:47;102793.72;;;7.07;100.00
59103;BME280;43999;51.660;5.616;2022-11-11T08:07:40;102783.31;;;7.07;100.00
59103;BME280;43999;51.660;5.616;2022-11-11T08:10:26;102785.84;;;7.13;100.00
59103;BME280;43999;51.660;5.616;2022-11-11T08:13:13;102795.41;;;7.17;100.00
59103;BME280;43999;51.660;5.616;2022-11-11T08:16:17;102795.41;;;7.17;100.00
59103;BME280;43999;51.660;5.616;2022-11-11T08:19:03;102796.25;;;7.20;100.00
59103;BME280;43999;51.660;5.616;2022-11-11T08:21:51;102794.50;;;7.18;100.00
59103;BME280;43999;51.660;5.616;2022-11-11T08:24:36;102806.66;;;7.21;100.00
59103;BME280;43999;51.660;5.616;2022-11-11T08:27:42;102800.56;;;7.24;100.00
59103;BME280;43999;51.660;5.616;2022-11-11T08:30:28;102802.28;;;7.25;100.00
59103;BME280;43999;51.660;5.616;2022-11-11T08:33:15;102811.81;;;7.27;100.00
59103;BME280;43999;51.660;5.616;2022-11-11T08:36:17;102813.53;;;7.31;100.00
59103;BME280;43999;51.660;5.616;2022-11-11T08:39:06;102816.13;;;7.34;100.00
59103;BME280;43999;51.660;5.616;2022-11-11T08:41:52;102824.78;;;7.35;100.00
59103;BME280;43999;51.660;5.616;2022-11-11T08:44:38;102821.28;;;7.39;100.00
59103;BME280;43999;51.660;5.616;2022-11-11T08:47:24;102827.34;;;7.41;100.00
59103;BME280;43999;51.660;5.616;2022-11-11T08:50:10;102826.44;;;7.45;100.00
59103;BME280;43999;51.660;5.616;2022-11-11T08:52:56;102829.03;;;7.48;100.00
59103;BME280;43999;51.660;5.616;2022-11-11T08:55:42;102829.88;;;7.50;100.00
59103;BME280;43999;51.660;5.616;2022-11-11T08:58:27;102818.50;;;7.58;100.00
59103;BME280;43999;51.660;5.616;2022-11-11T09:01:15;102831.56;;;7.58;100.00
59103;BME280;43999;51.660;5.616;2022-11-11T09:04:01;102835.84;;;7.63;100.00
59103;BME280;43999;51.660;5.616;2022-11-11T09:07:09;102824.53;;;7.64;100.00
59103;BME280;43999;51.660;5.616;2022-11-11T09:09:56;102825.38;;;7.66;100.00
59103;BME280;43999;51.660;5.616;2022-11-11T09:12:41;102819.25;;;7.70;100.00
59103;BME280;43999;51.660;5.616;2022-11-11T09:15:27;102826.16;;;7.76;100.00
59103;BME280;43999;51.660;5.616;2022-11-11T09:18:13;102816.53;;;7.80;100.00
59103;BME280;43999;51.660;5.616;2022-11-11T09:20:59;102827.78;;;7.85;100.00
59103;BME280;43999;51.660;5.616;2022-11-11T09:23:45;102821.66;;;7.89;100.00
59103;BME280;43999;51.660;5.616;2022-11-11T09:26:31;102829.44;;;7.94;100.00
59103;BME280;43999;51.660;5.616;2022-11-11T09:29:18;102826.75;;;8.01;100.00
59103;BME280;43999;51.660;5.616;2022-11-11T09:32:04;102819.72;;;8.06;100.00
59103;BME280;43999;51.660;5.616;2022-11-11T09:34:50;102824.03;;;8.12;100.00
59103;BME280;43999;51.660;5.616;2022-11-11T09:37:36;102823.09;;;8.16;100.00
59103;BME280;43999;51.660;5.616;2022-11-11T09:40:24;102822.19;;;8.20;100.00
59103;BME280;43999;51.660;5.616;2022-11-11T09:43:58;102835.13;;;8.28;100.00
59103;BME280;43999;51.660;5.616;2022-11-11T09:47:09;102829.00;;;8.34;100.00
59103;BME280;43999;51.660;5.616;2022-11-11T09:50:10;102831.47;;;8.43;100.00
59103;BME280;43999;51.660;5.616;2022-11-11T09:56:18;102840.00;;;8.60;100.00
59103;BME280;43999;51.660;5.616;2022-11-11T09:59:31;102838.09;;;8.72;100.00
59103;BME280;43999;51.660;5.616;2022-11-11T10:02:43;102848.44;;;8.79;100.00
59103;BME280;43999;51.660;5.616;2022-11-11T10:09:00;102846.41;;;9.00;100.00
59103;BME280;43999;51.660;5.616;2022-11-11T10:12:08;102847.91;;;9.15;100.00
59103;BME280;43999;51.660;5.616;2022-11-11T10:14:59;102843.19;;;9.36;100.00
59103;BME280;43999;51.660;5.616;2022-11-11T10:21:07;102845.34;;;9.63;100.00
59103;BME280;43999;51.660;5.616;2022-11-11T10:24:01;102835.56;;;9.75;100.00
59103;BME280;43999;51.660;5.616;2022-11-11T10:26:55;102849.44;;;9.78;100.00
59103;BME280;43999;51.660;5.616;2022-11-11T10:29:46;102846.69;;;9.86;100.00
59103;BME280;43999;51.660;5.616;2022-11-11T10:32:34;102844.03;;;9.87;100.00
59103;BME280;43999;51.660;5.616;2022-11-11T10:35:30;102839.56;;;9.93;100.00
59103;BME280;43999;51.660;5.616;2022-11-11T10:38:38;102846.53;;;9.95;100.00
59103;BME280;43999;51.660;5.616;2022-11-11T10:41:48;102851.63;;;10.03;100.00
59103;BME280;43999;51.660;5.616;2022-11-11T10:44:37;102839.22;;;10.11;100.00
59103;BME280;43999;51.660;5.616;2022-11-11T10:47:55;102848.72;;;10.17;100.00
59103;BME280;43999;51.660;5.616;2022-11-11T10:50:53;102843.44;;;10.18;100.00
59103;BME280;43999;51.660;5.616;2022-11-11T10:54:15;102842.31;;;10.32;100.00
59103;BME280;43999;51.660;5.616;2022-11-11T10:57:22;102830.84;;;10.37;100.00
59103;BME280;43999;51.660;5.616;2022-11-11T11:00:19;102839.50;;;10.43;100.00
59103;BME280;43999;51.660;5.616;2022-11-11T11:06:17;102838.28;;;10.57;100.00
59103;BME280;43999;51.660;5.616;2022-11-11T11:13:22;102834.97;;;10.88;100.00
59103;BME280;43999;51.660;5.616;2022-11-11T11:16:05;102839.03;;;11.03;100.00
59103;BME280;43999;51.660;5.616;2022-11-11T11:19:26;102836.94;;;11.16;100.00
59103;BME280;43999;51.660;5.616;2022-11-11T11:22:12;102839.31;;;11.27;100.00
59103;BME280;43999;51.660;5.616;2022-11-11T11:25:19;102831.13;;;11.39;100.00
59103;BME280;43999;51.660;5.616;2022-11-11T11:28:11;102834.16;;;11.57;100.00
59103;BME280;43999;51.660;5.616;2022-11-11T11:31:06;102824.34;;;11.65;100.00
59103;BME280;43999;51.660;5.616;2022-11-11T11:33:54;102820.72;;;11.69;100.00
59103;BME280;43999;51.660;5.616;2022-11-11T11:36:41;102825.00;;;11.73;100.00
59103;BME280;43999;51.660;5.616;2022-11-11T11:39:38;102822.19;;;11.79;100.00
59103;BME280;43999;51.660;5.616;2022-11-11T11:42:38;102822.16;;;11.81;100.00
59103;BME280;43999;51.660;5.616;2022-11-11T11:45:26;102824.72;;;11.84;100.00
59103;BME280;43999;51.660;5.616;2022-11-11T11:48:53;102830.81;;;11.84;100.00
59103;BME280;43999;51.660;5.616;2022-11-11T11:55:31;102822.81;;;11.89;100.00
59103;BME280;43999;51.660;5.616;2022-11-11T12:05:48;102815.28;;;12.08;100.00
59103;BME280;43999;51.660;5.616;2022-11-11T12:09:27;102811.75;;;12.09;100.00
59103;BME280;43999;51.660;5.616;2022-11-11T12:12:54;102819.44;;;12.17;100.00
59103;BME280;43999;51.660;5.616;2022-11-11T12:16:18;102816.75;;;12.18;100.00
59103;BME280;43999;51.660;5.616;2022-11-11T12:19:40;102807.75;;;12.27;100.00
59103;BME280;43999;51.660;5.616;2022-11-11T12:30:16;102790.44;;;12.48;100.00
59103;BME280;43999;51.660;5.616;2022-11-11T12:43:13;102777.25;;;13.05;98.40
59103;BME280;43999;51.660;5.616;2022-11-11T12:50:12;102783.00;;;13.43;96.28
59103;BME280;43999;51.660;5.616;2022-11-11T13:16:37;102781.91;;;13.99;88.87
59103;BME280;43999;51.660;5.616;2022-11-11T13:19:55;102780.72;;;14.06;89.10
59103;BME280;43999;51.660;5.616;2022-11-11T13:22:44;102774.22;;;14.16;88.92
59103;BME280;43999;51.660;5.616;2022-11-11T13:25:43;102774.16;;;14.18;88.04
59103;BME280;43999;51.660;5.616;2022-11-11T13:28:47;102772.47;;;14.15;88.67
59103;BME280;43999;51.660;5.616;2022-11-11T13:31:39;102769.66;;;14.20;88.27
59103;BME280;43999;51.660;5.616;2022-11-11T13:34:28;102775.63;;;14.25;88.61
59103;BME280;43999;51.660;5.616;2022-11-11T13:37:30;102774.03;;;14.21;88.79
59103;BME280;43999;51.660;5.616;2022-11-11T13:40:38;102781.31;;;14.14;88.92
59103;BME280;43999;51.660;5.616;2022-11-11T13:43:39;102780.72;;;14.06;89.60
59103;BME280;43999;51.660;5.616;2022-11-11T13:46:43;102787.16;;;13.99;89.55
59103;BME280;43999;51.660;5.616;2022-11-11T13:49:50;102777.94;;;13.87;90.68
59103;BME280;43999;51.660;5.616;2022-11-11T13:52:58;102781.63;;;13.81;92.19
59103;BME280;43999;51.660;5.616;2022-11-11T13:55:47;102779.13;;;13.78;91.20
59103;BME280;43999;51.660;5.616;2022-11-11T13:58:37;102776.75;;;13.71;92.16
59103;BME280;43999;51.660;5.616;2022-11-11T14:01:34;102778.66;;;13.67;93.06
59103;BME280;43999;51.660;5.616;2022-11-11T14:04:27;102777.91;;;13.63;93.25
59103;BME280;43999;51.660;5.616;2022-11-11T14:16:09;102775.94;;;13.45;95.38
59103;BME280;43999;51.660;5.616;2022-11-11T14:18:57;102776.94;;;13.41;96.12
59103;BME280;43999;51.660;5.616;2022-11-11T14:25:25;102779.88;;;13.32;96.61
59103;BME280;43999;51.660;5.616;2022-11-11T14:41:46;102771.75;;;13.13;99.12
59103;BME280;43999;51.660;5.616;2022-11-11T14:44:38;102764.94;;;13.05;99.17
59103;BME280;43999;51.660;5.616;2022-11-11T14:47:40;102765.94;;;13.03;99.60
59103;BME280;43999;51.660;5.616;2022-11-11T14:53:19;102759.94;;;12.98;99.65
59103;BME280;43999;51.660;5.616;2022-11-11T14:56:18;102760.03;;;12.95;100.00
59103;BME280;43999;51.660;5.616;2022-11-11T14:59:07;102755.72;;;12.94;100.00
59103;BME280;43999;51.660;5.616;2022-11-11T15:01:59;102759.31;;;12.91;100.00
59103;BME280;43999;51.660;5.616;2022-11-11T15:04:46;102771.72;;;12.87;100.00
59103;BME280;43999;51.660;5.616;2022-11-11T15:18:15;102774.34;;;12.59;100.00
59103;BME280;43999;51.660;5.616;2022-11-11T15:21:42;102783.34;;;12.52;100.00
59103;BME280;43999;51.660;5.616;2022-11-11T15:33:05;102779.78;;;12.25;100.00
59103;BME280;43999;51.660;5.616;2022-11-11T15:39:52;102783.81;;;12.07;100.00
59103;BME280;43999;51.660;5.616;2022-11-11T15:42:43;102784.94;;;11.98;100.00
59103;BME280;43999;51.660;5.616;2022-11-11T15:45:35;102777.25;;;11.90;100.00
59103;BME280;43999;51.660;5.616;2022-11-11T15:48:33;102786.13;;;11.86;100.00
59103;BME280;43999;51.660;5.616;2022-11-11T15:51:28;102783.69;;;11.78;100.00
59103;BME280;43999;51.660;5.616;2022-11-11T15:54:19;102790.09;;;11.70;100.00
59103;BME280;43999;51.660;5.616;2022-11-11T15:57:30;102784.16;;;11.61;100.00
59103;BME280;43999;51.660;5.616;2022-11-11T16:03:22;102796.69;;;11.52;100.00
59103;BME280;43999;51.660;5.616;2022-11-11T16:06:15;102788.94;;;11.47;100.00
59103;BME280;43999;51.660;5.616;2022-11-11T16:09:02;102788.28;;;11.39;100.00
59103;BME280;43999;51.660;5.616;2022-11-11T16:11:49;102786.66;;;11.33;100.00
59103;BME280;43999;51.660;5.616;2022-11-11T16:14:42;102802.56;;;11.27;100.00
59103;BME280;43999;51.660;5.616;2022-11-11T16:17:40;102790.50;;;11.20;100.00
59103;BME280;43999;51.660;5.616;2022-11-11T16:20:49;102790.69;;;11.12;100.00
59103;BME280;43999;51.660;5.616;2022-11-11T16:23:40;102803.88;;;11.09;100.00
59103;BME280;43999;51.660;5.616;2022-11-11T16:26:27;102810.19;;;11.02;100.00
59103;BME280;43999;51.660;5.616;2022-11-11T16:29:18;102806.75;;;10.98;100.00
59103;BME280;43999;51.660;5.616;2022-11-11T16:32:32;102813.84;;;10.94;100.00
59103;BME280;43999;51.660;5.616;2022-11-11T16:35:34;102811.41;;;10.87;100.00
59103;BME280;43999;51.660;5.616;2022-11-11T16:38:32;102809.78;;;10.81;100.00
59103;BME280;43999;51.660;5.616;2022-11-11T16:41:29;102808.19;;;10.75;100.00
59103;BME280;43999;51.660;5.616;2022-11-11T16:44:43;102807.41;;;10.70;100.00
59103;BME280;43999;51.660;5.616;2022-11-11T16:47:42;102807.56;;;10.64;100.00
59103;BME280;43999;51.660;5.616;2022-11-11T16:50:31;102804.19;;;10.59;100.00
59103;BME280;43999;51.660;5.616;2022-11-11T16:53:29;102810.47;;;10.52;100.00
59103;BME280;43999;51.660;5.616;2022-11-11T16:56:29;102813.22;;;10.46;100.00
59103;BME280;43999;51.660;5.616;2022-11-11T16:59:41;102809.84;;;10.39;100.00
59103;BME280;43999;51.660;5.616;2022-11-11T17:02:33;102811.69;;;10.35;100.00
59103;BME280;43999;51.660;5.616;2022-11-11T17:05:55;102805.63;;;10.32;100.00
59103;BME280;43999;51.660;5.616;2022-11-11T17:08:45;102790.94;;;10.25;100.00
59103;BME280;43999;51.660;5.616;2022-11-11T17:11:42;102803.19;;;10.24;100.00
59103;BME280;43999;51.660;5.616;2022-11-11T17:14:35;102804.97;;;10.20;100.00